Time;durP1;ratioP1;P1;durP2;ratioP2;P2;SDS_P1;SDS_P2;PMS_P1;PMS_P2;Temp;Humidity;BMP_temperature;BMP_pressure;BME280_temperature;BME280_humidity;BME280_pressure;Samples;Min_cycle;Max_cycle;Signal;HPM_P1;HPM_P2
2021/08/20 00:02:15;;;;;;;7.90;7.20;;;;;;;;;;5068751;28;20518;-82
2021/08/20 00:04:41;;;;;;;7.72;7.03;;;;;;;;;;5068609;28;20878;-83
2021/08/20 00:07:07;;;;;;;7.65;6.85;;;;;;;;;;5068733;28;20369;-80
2021/08/20 00:09:33;;;;;;;7.78;6.85;;;;;;;;;;5050660;28;20448;-80
2021/08/20 00:11:59;;;;;;;7.70;6.93;;;;;;;;;;5068372;28;20365;-80
2021/08/20 00:14:25;;;;;;;8.68;7.78;;;;;;;;;;5068862;28;20479;-80
2021/08/20 00:16:51;;;;;;;8.63;7.80;;;;;;;;;;5068693;28;20377;-80
2021/08/20 00:19:17;;;;;;;8.67;7.70;;;;;;;;;;5050624;28;20443;-82
2021/08/20 00:21:44;;;;;;;7.97;7.18;;;;;;;;;;5068398;28;20477;-83
2021/08/20 00:24:14;;;;;;;8.05;7.25;;;;;;;;;;5068542;28;20394;-81
2021/08/20 00:26:40;;;;;;;7.82;7.13;;;;;;;;;;5068552;28;20386;-81
2021/08/20 00:29:06;;;;;;;7.15;6.45;;;;;;;;;;5050366;28;20465;-83
2021/08/20 00:31:32;;;;;;;7.30;6.57;;;;;;;;;;5050806;28;20713;-80
2021/08/20 00:33:58;;;;;;;7.35;6.63;;;;;;;;;;5068435;28;20384;-83
2021/08/20 00:36:24;;;;;;;7.55;6.03;;;;;;;;;;5068472;28;20478;-83
2021/08/20 00:38:50;;;;;;;7.40;6.47;;;;;;;;;;5050505;28;20382;-83
2021/08/20 00:41:16;;;;;;;7.47;6.78;;;;;;;;;;5068390;28;20416;-81
2021/08/20 00:43:46;;;;;;;7.00;6.30;;;;;;;;;;5050381;28;20409;-81
2021/08/20 00:46:12;;;;;;;7.35;6.63;;;;;;;;;;5068488;28;20385;-82
2021/08/20 00:48:39;;;;;;;7.73;6.57;;;;;;;;;;5069565;28;20405;-81
2021/08/20 00:51:08;;;;;;;7.68;6.95;;;;;;;;;;5068314;28;20731;-83
2021/08/20 00:53:35;;;;;;;7.68;6.88;;;;;;;;;;5050384;28;20393;-81
2021/08/20 00:56:01;;;;;;;7.65;6.80;;;;;;;;;;5068507;28;20366;-82
2021/08/20 00:58:30;;;;;;;7.80;6.85;;;;;;;;;;5068231;28;20374;-83
2021/08/20 01:00:56;;;;;;;7.60;6.80;;;;;;;;;;5068685;28;20362;-80
2021/08/20 01:03:22;;;;;;;7.68;6.97;;;;;;;;;;5068215;28;20425;-83
2021/08/20 01:05:50;;;;;;;7.00;6.30;;;;;;;;;;5068023;28;20457;-80
2021/08/20 01:08:17;;;;;;;8.23;7.00;;;;;;;;;;5068603;28;20365;-80
2021/08/20 01:10:43;;;;;;;8.02;7.22;;;;;;;;;;5068100;28;20377;-82
2021/08/20 01:13:09;;;;;;;8.63;7.82;;;;;;;;;;5050213;28;20374;-79
2021/08/20 01:15:35;;;;;;;8.77;7.93;;;;;;;;;;5067984;28;20886;-81
2021/08/20 01:18:01;;;;;;;8.47;7.60;;;;;;;;;;5068109;28;20857;-81
2021/08/20 01:20:27;;;;;;;7.70;6.90;;;;;;;;;;5067856;28;20370;-82
2021/08/20 01:22:52;;;;;;;8.75;7.82;;;;;;;;;;5068154;28;20382;-81
2021/08/20 01:25:18;;;;;;;8.18;7.25;;;;;;;;;;5070795;28;20400;-79
2021/08/20 01:27:45;;;;;;;8.10;7.30;;;;;;;;;;5053957;28;20378;-81
2021/08/20 01:30:11;;;;;;;8.23;7.43;;;;;;;;;;5071337;28;20468;-80
2021/08/20 01:32:37;;;;;;;7.82;7.03;;;;;;;;;;5053548;28;20378;-81
2021/08/20 01:35:03;;;;;;;10.02;8.18;;;;;;;;;;5071723;28;20374;-81
2021/08/20 01:37:29;;;;;;;7.97;7.18;;;;;;;;;;5071601;28;20378;-80
2021/08/20 01:39:55;;;;;;;7.50;6.80;;;;;;;;;;5071092;28;20378;-80
2021/08/20 01:42:21;;;;;;;8.30;7.50;;;;;;;;;;5071263;28;20720;-83
2021/08/20 01:44:47;;;;;;;10.50;7.80;;;;;;;;;;5071368;28;20402;-79
2021/08/20 01:47:13;;;;;;;9.13;8.07;;;;;;;;;;5071206;28;20878;-83
2021/08/20 01:49:39;;;;;;;9.52;8.63;;;;;;;;;;5071252;28;20376;-83
2021/08/20 01:52:06;;;;;;;9.10;8.20;;;;;;;;;;5071069;28;20461;-83
2021/08/20 01:54:32;;;;;;;9.57;8.50;;;;;;;;;;5053288;28;20366;-82
2021/08/20 01:56:58;;;;;;;10.40;8.30;;;;;;;;;;5053338;28;20378;-81
2021/08/20 01:59:24;;;;;;;9.48;7.78;;;;;;;;;;5071027;28;20405;-82
2021/08/20 02:01:50;;;;;;;9.15;8.25;;;;;;;;;;5052928;28;20441;-81
2021/08/20 02:04:16;;;;;;;8.75;7.75;;;;;;;;;;5071294;28;20398;-82
2021/08/20 02:06:42;;;;;;;8.40;7.50;;;;;;;;;;5071012;28;20788;-80
2021/08/20 02:09:08;;;;;;;8.95;8.05;;;;;;;;;;5071047;28;20440;-80
2021/08/20 02:11:34;;;;;;;8.02;7.20;;;;;;;;;;5052834;28;20453;-82
2021/08/20 02:14:00;;;;;;;8.38;7.57;;;;;;;;;;5070927;28;20461;-79
2021/08/20 02:16:26;;;;;;;8.83;7.63;;;;;;;;;;5070615;28;20452;-82
2021/08/20 02:18:52;;;;;;;9.18;7.63;;;;;;;;;;5070667;28;20408;-81
2021/08/20 02:21:18;;;;;;;8.88;7.97;;;;;;;;;;5070623;28;20358;-82
2021/08/20 02:23:44;;;;;;;8.85;7.75;;;;;;;;;;5070694;28;21001;-81
2021/08/20 02:26:10;;;;;;;8.80;7.90;;;;;;;;;;5052570;28;20732;-80
2021/08/20 02:28:36;;;;;;;9.32;8.27;;;;;;;;;;5070578;28;20362;-80
2021/08/20 02:31:02;;;;;;;8.10;7.30;;;;;;;;;;5070471;28;20378;-82
2021/08/20 02:33:28;;;;;;;8.82;7.90;;;;;;;;;;5070539;28;20397;-82
2021/08/20 02:35:54;;;;;;;8.82;7.93;;;;;;;;;;5052236;28;20417;-83
2021/08/20 02:38:20;;;;;;;8.45;7.65;;;;;;;;;;5052599;28;20389;-83
2021/08/20 02:40:46;;;;;;;9.80;7.63;;;;;;;;;;5070642;28;20393;-81
2021/08/20 02:43:12;;;;;;;8.48;7.57;;;;;;;;;;5052262;28;20736;-81
2021/08/20 02:45:38;;;;;;;9.40;7.85;;;;;;;;;;5070441;28;20374;-81
2021/08/20 02:48:04;;;;;;;9.85;7.90;;;;;;;;;;5052101;28;20854;-83
2021/08/20 02:50:30;;;;;;;9.02;7.82;;;;;;;;;;5069874;28;20377;-82
2021/08/20 02:52:56;;;;;;;9.27;7.78;;;;;;;;;;5070354;28;20728;-82
2021/08/20 02:55:22;;;;;;;8.93;8.00;;;;;;;;;;5069706;28;20385;-80
2021/08/20 02:57:48;;;;;;;9.05;8.13;;;;;;;;;;5070274;28;20890;-83
2021/08/20 03:00:14;;;;;;;8.70;7.80;;;;;;;;;;5069846;28;20370;-81
2021/08/20 03:02:40;;;;;;;9.23;8.15;;;;;;;;;;5051972;28;20389;-82
2021/08/20 03:05:06;;;;;;;12.40;8.75;;;;;;;;;;5052065;28;20397;-81
2021/08/20 03:07:32;;;;;;;9.00;8.10;;;;;;;;;;5051818;28;20377;-80
2021/08/20 03:09:58;;;;;;;8.85;7.90;;;;;;;;;;5069798;28;20374;-80
2021/08/20 03:12:24;;;;;;;9.27;8.37;;;;;;;;;;5069590;28;20382;-80
2021/08/20 03:14:51;;;;;;;9.30;8.03;;;;;;;;;;5069706;28;20378;-83
2021/08/20 03:17:17;;;;;;;10.35;8.68;;;;;;;;;;5069538;28;20362;-81
2021/08/20 03:19:43;;;;;;;10.32;8.38;;;;;;;;;;5069549;28;20377;-83
2021/08/20 03:22:09;;;;;;;9.07;8.10;;;;;;;;;;5069281;28;20358;-85
2021/08/20 03:24:35;;;;;;;10.52;8.80;;;;;;;;;;5069573;28;20887;-83
2021/08/20 03:27:01;;;;;;;9.40;8.10;;;;;;;;;;5069606;28;20713;-83
2021/08/20 03:29:27;;;;;;;10.40;8.38;;;;;;;;;;5069341;28;20366;-83
2021/08/20 03:31:53;;;;;;;10.30;8.80;;;;;;;;;;5069323;28;20374;-83
2021/08/20 03:34:19;;;;;;;11.00;8.93;;;;;;;;;;5051405;28;20425;-81
2021/08/20 03:36:45;;;;;;;10.00;8.85;;;;;;;;;;5069254;28;20457;-82
2021/08/20 03:39:11;;;;;;;11.38;9.40;;;;;;;;;;5069255;28;21187;-82
2021/08/20 03:41:37;;;;;;;10.57;8.77;;;;;;;;;;5069395;28;20453;-84
2021/08/20 03:44:03;;;;;;;12.50;9.68;;;;;;;;;;5068975;28;20406;-81
2021/08/20 03:46:29;;;;;;;11.82;9.20;;;;;;;;;;5050493;28;20454;-84
2021/08/20 03:48:55;;;;;;;12.27;9.55;;;;;;;;;;5051190;28;20477;-82
2021/08/20 03:51:21;;;;;;;14.23;10.07;;;;;;;;;;5050852;28;20508;-85
2021/08/20 03:53:47;;;;;;;13.80;10.67;;;;;;;;;;5069280;28;20410;-84
2021/08/20 03:56:13;;;;;;;13.23;10.52;;;;;;;;;;5051115;28;20370;-82
2021/08/20 03:58:39;;;;;;;12.60;10.18;;;;;;;;;;5050843;28;20378;-85
2021/08/20 04:01:08;;;;;;;14.73;10.73;;;;;;;;;;5068916;28;20372;-80
2021/08/20 04:03:34;;;;;;;15.27;10.75;;;;;;;;;;5069014;28;20507;-79
2021/08/20 04:06:00;;;;;;;12.98;10.40;;;;;;;;;;5069225;28;20385;-81
2021/08/20 04:08:26;;;;;;;14.60;10.77;;;;;;;;;;5069043;28;20370;-81
2021/08/20 04:10:52;;;;;;;15.47;10.67;;;;;;;;;;5068778;28;20867;-82
2021/08/20 04:13:18;;;;;;;13.18;10.57;;;;;;;;;;5068820;28;20372;-83
2021/08/20 04:15:44;;;;;;;14.63;11.15;;;;;;;;;;5069068;28;20585;-84
2021/08/20 04:18:10;;;;;;;16.60;11.73;;;;;;;;;;5068742;28;20381;-85
2021/08/20 04:20:36;;;;;;;15.73;10.85;;;;;;;;;;5068733;28;20925;-82
2021/08/20 04:23:05;;;;;;;12.82;10.60;;;;;;;;;;5050849;28;20398;-86
2021/08/20 04:25:31;;;;;;;11.20;9.77;;;;;;;;;;5068699;28;20432;-83
2021/08/20 04:27:57;;;;;;;13.20;10.33;;;;;;;;;;5068657;28;20374;-83
2021/08/20 04:30:23;;;;;;;14.73;9.88;;;;;;;;;;5068785;28;20371;-85
2021/08/20 04:32:50;;;;;;;13.93;10.23;;;;;;;;;;5050417;28;20473;-85
2021/08/20 04:35:16;;;;;;;14.25;10.40;;;;;;;;;;5068647;28;20401;-81
2021/08/20 04:37:42;;;;;;;10.18;9.07;;;;;;;;;;5068492;28;20394;-84
2021/08/20 04:40:08;;;;;;;13.20;10.35;;;;;;;;;;5050665;28;20373;-84
2021/08/20 04:42:38;;;;;;;12.18;10.35;;;;;;;;;;5080480;28;20377;-85
2021/08/20 04:45:04;;;;;;;11.52;9.88;;;;;;;;;;5050656;28;20437;-81
2021/08/20 04:47:30;;;;;;;12.10;10.20;;;;;;;;;;5076340;28;20407;-84
2021/08/20 04:49:56;;;;;;;13.05;10.43;;;;;;;;;;5081272;28;20789;-82
2021/08/20 04:52:22;;;;;;;12.20;9.93;;;;;;;;;;5067992;28;20389;-82
2021/08/20 04:54:48;;;;;;;14.35;10.50;;;;;;;;;;5067688;28;20374;-83
2021/08/20 04:57:14;;;;;;;13.95;10.60;;;;;;;;;;5067026;28;20357;-84
2021/08/20 04:59:40;;;;;;;13.60;10.50;;;;;;;;;;5063027;28;20378;-84
2021/08/20 05:02:07;;;;;;;13.25;10.50;;;;;;;;;;5061165;28;20443;-82
2021/08/20 05:04:34;;;;;;;14.05;10.30;;;;;;;;;;5071568;28;20398;-83
2021/08/20 05:07:00;;;;;;;13.32;10.13;;;;;;;;;;5071500;28;20382;-81
2021/08/20 05:09:27;;;;;;;13.60;10.60;;;;;;;;;;5072602;28;20423;-84
2021/08/20 05:11:53;;;;;;;13.07;10.85;;;;;;;;;;5071470;28;20370;-79
2021/08/20 05:14:19;;;;;;;13.80;11.15;;;;;;;;;;5075358;28;20395;-80
2021/08/20 05:16:48;;;;;;;15.02;10.82;;;;;;;;;;5081314;28;20477;-84
2021/08/20 05:19:15;;;;;;;15.88;11.10;;;;;;;;;;5069896;28;20967;-82
2021/08/20 05:21:41;;;;;;;13.70;10.63;;;;;;;;;;5071076;28;20469;-82
2021/08/20 05:24:07;;;;;;;13.38;10.50;;;;;;;;;;5070622;28;20837;-79
2021/08/20 05:26:33;;;;;;;13.57;10.55;;;;;;;;;;5071110;28;20461;-80
2021/08/20 05:28:59;;;;;;;14.63;11.05;;;;;;;;;;5073866;28;20391;-81
2021/08/20 05:31:25;;;;;;;14.57;11.10;;;;;;;;;;5091614;28;20766;-80
2021/08/20 05:33:51;;;;;;;14.13;10.82;;;;;;;;;;5091975;28;21129;-81
2021/08/20 05:36:17;;;;;;;13.30;10.80;;;;;;;;;;5091737;28;20429;-80
2021/08/20 05:38:43;;;;;;;12.70;10.40;;;;;;;;;;5091685;28;20373;-80
2021/08/20 05:41:09;;;;;;;12.65;10.27;;;;;;;;;;5091473;28;20475;-82
2021/08/20 05:43:35;;;;;;;13.33;10.03;;;;;;;;;;5091827;28;20491;-82
2021/08/20 05:46:02;;;;;;;15.60;11.30;;;;;;;;;;5091758;28;20404;-82
2021/08/20 05:48:28;;;;;;;14.88;11.07;;;;;;;;;;5091092;28;20395;-84
2021/08/20 05:50:54;;;;;;;13.30;10.55;;;;;;;;;;5091777;28;20854;-82
2021/08/20 05:53:20;;;;;;;14.67;10.70;;;;;;;;;;5091602;28;20387;-84
2021/08/20 05:55:46;;;;;;;15.20;10.32;;;;;;;;;;5091735;28;20360;-82
2021/08/20 05:58:12;;;;;;;12.52;10.18;;;;;;;;;;5091836;28;20939;-80
2021/08/20 06:00:37;;;;;;;12.15;9.85;;;;;;;;;;5091371;28;20414;-83
2021/08/20 06:03:04;;;;;;;12.07;10.13;;;;;;;;;;5091519;28;20850;-82
2021/08/20 06:05:30;;;;;;;12.45;10.50;;;;;;;;;;5091542;28;20862;-82
2021/08/20 06:07:56;;;;;;;12.15;9.75;;;;;;;;;;5091544;28;20472;-82
2021/08/20 06:10:22;;;;;;;13.27;10.50;;;;;;;;;;5072113;28;20475;-84
2021/08/20 06:12:49;;;;;;;12.70;10.27;;;;;;;;;;5061902;28;20889;-82
2021/08/20 06:15:15;;;;;;;11.13;9.10;;;;;;;;;;5064680;28;20453;-82
2021/08/20 06:17:42;;;;;;;12.55;10.23;;;;;;;;;;5050057;28;20507;-80
2021/08/20 06:20:08;;;;;;;10.50;9.32;;;;;;;;;;5047239;28;20388;-82
2021/08/20 06:22:34;;;;;;;10.85;8.93;;;;;;;;;;5055220;28;20856;-84
2021/08/20 06:25:00;;;;;;;10.20;9.20;;;;;;;;;;5068999;28;20417;-84
2021/08/20 06:27:26;;;;;;;10.07;8.75;;;;;;;;;;5059910;28;20382;-82
2021/08/20 06:29:52;;;;;;;9.88;8.68;;;;;;;;;;5064576;28;20381;-82
2021/08/20 06:32:18;;;;;;;9.67;8.67;;;;;;;;;;5057798;28;20874;-82
2021/08/20 06:34:44;;;;;;;8.53;7.83;;;;;;;;;;5065659;28;20465;-82
2021/08/20 06:37:10;;;;;;;9.70;8.48;;;;;;;;;;5070565;28;20466;-82
2021/08/20 06:39:36;;;;;;;9.95;8.95;;;;;;;;;;5070323;28;20863;-82
2021/08/20 06:42:02;;;;;;;10.65;9.55;;;;;;;;;;5052607;28;20374;-83
2021/08/20 06:44:28;;;;;;;12.27;11.05;;;;;;;;;;5073195;28;20394;-82
2021/08/20 06:46:54;;;;;;;13.40;12.00;;;;;;;;;;5070351;28;20358;-81
2021/08/20 06:49:20;;;;;;;13.87;12.20;;;;;;;;;;5051789;28;20425;-81
2021/08/20 06:51:46;;;;;;;13.00;11.70;;;;;;;;;;5070388;28;20374;-84
2021/08/20 06:54:12;;;;;;;14.35;12.88;;;;;;;;;;5052148;28;20385;-81
2021/08/20 06:56:38;;;;;;;14.23;12.73;;;;;;;;;;5070443;28;20866;-83
2021/08/20 06:59:04;;;;;;;13.82;12.43;;;;;;;;;;5089353;28;20475;-82
2021/08/20 07:01:30;;;;;;;15.25;13.65;;;;;;;;;;5090472;28;20444;-82
2021/08/20 07:03:58;;;;;;;14.98;13.43;;;;;;;;;;5071667;28;20845;-81
2021/08/20 07:06:25;;;;;;;16.33;14.17;;;;;;;;;;5072084;28;20383;-82
2021/08/20 07:08:51;;;;;;;18.50;16.58;;;;;;;;;;5090151;28;20380;-81
2021/08/20 07:11:18;;;;;;;22.73;19.50;;;;;;;;;;5087742;28;20408;-81
2021/08/20 07:13:44;;;;;;;28.35;23.85;;;;;;;;;;5051959;28;20895;-83
2021/08/20 07:16:10;;;;;;;32.43;28.93;;;;;;;;;;5052166;28;20370;-79
2021/08/20 07:18:36;;;;;;;35.27;30.97;;;;;;;;;;5069154;28;20686;-83
2021/08/20 07:21:03;;;;;;;37.53;33.13;;;;;;;;;;5052392;28;20382;-80
2021/08/20 07:23:29;;;;;;;40.33;34.90;;;;;;;;;;5069918;28;20363;-81
2021/08/20 07:25:55;;;;;;;39.45;35.03;;;;;;;;;;5069601;28;20366;-80
2021/08/20 07:28:21;;;;;;;38.25;34.35;;;;;;;;;;5081048;28;20487;-82
2021/08/20 07:30:47;;;;;;;37.45;33.35;;;;;;;;;;5069755;28;20384;-79
2021/08/20 07:33:13;;;;;;;35.85;32.00;;;;;;;;;;5088165;28;20413;-81
2021/08/20 07:35:39;;;;;;;35.03;31.33;;;;;;;;;;5089558;28;20730;-80
2021/08/20 07:38:05;;;;;;;34.90;31.20;;;;;;;;;;5089270;28;20377;-82
2021/08/20 07:40:31;;;;;;;29.40;26.30;;;;;;;;;;5068763;28;20470;-80
2021/08/20 07:42:57;;;;;;;25.58;22.98;;;;;;;;;;5062779;28;20945;-80
2021/08/20 07:45:23;;;;;;;23.30;20.80;;;;;;;;;;5064150;28;20406;-81
2021/08/20 07:47:50;;;;;;;24.67;22.08;;;;;;;;;;5063477;28;20461;-80
2021/08/20 07:50:17;;;;;;;21.33;19.13;;;;;;;;;;5063298;28;20377;-81
2021/08/20 07:52:44;;;;;;;20.35;18.15;;;;;;;;;;5062986;28;20387;-83
2021/08/20 07:55:10;;;;;;;20.58;18.40;;;;;;;;;;5048697;28;20740;-82
2021/08/20 07:57:45;;;;;;;19.83;17.92;;;;;;;;;;5069921;28;20485;-82
2021/08/20 08:00:12;;;;;;;19.30;17.40;;;;;;;;;;5053513;28;20401;-83
2021/08/20 08:02:37;;;;;;;18.00;16.10;;;;;;;;;;5046794;28;20894;-80
2021/08/20 08:05:04;;;;;;;17.83;15.95;;;;;;;;;;5069288;28;20398;-83
2021/08/20 08:07:30;;;;;;;17.33;15.02;;;;;;;;;;5050948;28;20725;-81
2021/08/20 08:09:55;;;;;;;14.60;13.10;;;;;;;;;;5067690;28;20448;-81
2021/08/20 08:12:21;;;;;;;15.18;13.57;;;;;;;;;;5068687;28;20457;-80
2021/08/20 08:14:48;;;;;;;12.75;11.45;;;;;;;;;;5058699;28;20453;-82
2021/08/20 08:17:13;;;;;;;12.82;11.52;;;;;;;;;;5071648;28;20380;-81
2021/08/20 08:19:41;;;;;;;12.77;10.87;;;;;;;;;;5066533;28;21290;-83
2021/08/20 08:22:07;;;;;;;13.90;10.73;;;;;;;;;;5055813;28;20396;-81
2021/08/20 08:24:33;;;;;;;10.73;8.60;;;;;;;;;;5043659;28;20457;-81
2021/08/20 08:27:00;;;;;;;9.32;7.63;;;;;;;;;;5059363;28;20918;-81
2021/08/20 08:29:26;;;;;;;7.13;6.43;;;;;;;;;;5059520;28;20433;-82
2021/08/20 08:31:52;;;;;;;6.47;5.82;;;;;;;;;;5047486;28;20476;-81
2021/08/20 08:34:18;;;;;;;5.32;4.75;;;;;;;;;;5047374;28;20465;-82
2021/08/20 08:36:44;;;;;;;4.00;3.60;;;;;;;;;;5059462;28;20879;-81
2021/08/20 08:39:12;;;;;;;3.73;2.40;;;;;;;;;;5047937;28;21136;-81
2021/08/20 08:41:38;;;;;;;2.00;1.90;;;;;;;;;;5055442;28;20390;-83
2021/08/20 08:44:05;;;;;;;2.63;1.67;;;;;;;;;;5048168;28;20765;-79
2021/08/20 08:46:36;;;;;;;1.60;1.50;;;;;;;;;;5059164;28;20405;-79
2021/08/20 08:49:03;;;;;;;1.88;1.60;;;;;;;;;;5058038;28;20410;-80
2021/08/20 08:51:29;;;;;;;1.63;1.53;;;;;;;;;;5059757;28;20389;-81
2021/08/20 08:53:55;;;;;;;2.53;1.60;;;;;;;;;;5057619;28;20392;-81
2021/08/20 08:56:21;;;;;;;1.50;1.40;;;;;;;;;;5057521;28;20388;-79
2021/08/20 08:58:48;;;;;;;1.83;1.65;;;;;;;;;;5049603;28;20748;-79
2021/08/20 09:01:30;;;;;;;2.25;1.90;;;;;;;;;;5062433;28;20395;-81
2021/08/20 09:04:16;;;;;;;1.75;1.65;;;;;;;;;;5060739;28;20988;-80
2021/08/20 09:06:53;;;;;;;2.37;2.17;;;;;;;;;;5062450;28;20374;-80
2021/08/20 09:09:20;;;;;;;2.22;1.90;;;;;;;;;;5059550;28;20488;-81
2021/08/20 09:11:55;;;;;;;2.10;1.90;;;;;;;;;;5045427;28;20533;-79
2021/08/20 09:14:28;;;;;;;1.67;1.57;;;;;;;;;;5060125;28;20390;-80
2021/08/20 09:16:54;;;;;;;3.03;2.03;;;;;;;;;;5077995;28;20462;-78
2021/08/20 09:19:22;;;;;;;1.80;1.60;;;;;;;;;;5070293;28;20372;-79
2021/08/20 09:21:53;;;;;;;1.60;1.50;;;;;;;;;;5070586;28;20392;-80
2021/08/20 09:45:30;;;;;;;5.00;4.35;;;;;;;;;;1504024;26;20498;-83
2021/08/20 09:47:57;;;;;;;5.57;4.40;;;;;;;;;;5030446;28;20936;-82
2021/08/20 09:50:39;;;;;;;5.85;4.53;;;;;;;;;;5043124;28;20390;-81
2021/08/20 09:53:12;;;;;;;7.82;5.90;;;;;;;;;;5070462;28;20370;-78
2021/08/20 09:55:39;;;;;;;6.93;6.22;;;;;;;;;;5069363;28;20943;-82
2021/08/20 09:58:10;;;;;;;7.17;5.60;;;;;;;;;;5070651;28;20374;-81
2021/08/20 10:00:36;;;;;;;9.00;6.80;;;;;;;;;;5051946;28;20386;-81
2021/08/20 10:03:04;;;;;;;5.83;5.10;;;;;;;;;;5070732;28;20378;-82
2021/08/20 10:05:30;;;;;;;10.32;9.20;;;;;;;;;;5070322;28;20473;-80
2021/08/20 10:07:56;;;;;;;7.90;7.10;;;;;;;;;;5070510;28;20397;-79
2021/08/20 10:10:22;;;;;;;8.65;7.85;;;;;;;;;;5069845;28;20378;-82
2021/08/20 10:12:49;;;;;;;7.78;7.07;;;;;;;;;;5070045;28;20416;-81
2021/08/20 10:15:15;;;;;;;11.65;8.10;;;;;;;;;;5070681;28;20387;-81
2021/08/20 10:17:41;;;;;;;11.40;9.68;;;;;;;;;;5052630;28;20382;-82
2021/08/20 10:20:08;;;;;;;10.68;9.63;;;;;;;;;;5069209;28;20410;-83
2021/08/20 10:22:35;;;;;;;11.13;9.95;;;;;;;;;;5070330;28;20370;-83
2021/08/20 10:25:02;;;;;;;10.18;9.18;;;;;;;;;;5070231;28;20402;-83
2021/08/20 10:27:30;;;;;;;11.00;8.77;;;;;;;;;;5070532;28;20370;-80
2021/08/20 10:29:56;;;;;;;11.48;9.32;;;;;;;;;;5070551;28;20429;-82
2021/08/20 10:32:22;;;;;;;10.77;9.20;;;;;;;;;;5051536;28;20402;-81
2021/08/20 10:34:48;;;;;;;9.52;8.13;;;;;;;;;;5050825;28;20921;-81
2021/08/20 10:37:34;;;;;;;10.18;9.25;;;;;;;;;;5069477;28;20701;-81
2021/08/20 10:40:14;;;;;;;10.55;9.55;;;;;;;;;;5060435;28;20382;-81
2021/08/20 10:42:43;;;;;;;10.43;9.40;;;;;;;;;;5040974;28;20555;-83
2021/08/20 10:45:11;;;;;;;9.20;8.30;;;;;;;;;;5068108;28;20887;-82
2021/08/20 10:47:37;;;;;;;10.10;8.52;;;;;;;;;;5069161;28;20370;-80
2021/08/20 10:50:09;;;;;;;9.07;7.90;;;;;;;;;;5066674;28;20378;-78
2021/08/20 10:52:37;;;;;;;9.13;8.23;;;;;;;;;;5066364;28;20531;-78
2021/08/20 10:55:03;;;;;;;9.15;7.93;;;;;;;;;;5068963;28;20377;-79
2021/08/20 10:57:35;;;;;;;8.02;7.22;;;;;;;;;;5049606;28;20378;-83
2021/08/20 11:00:05;;;;;;;7.60;6.80;;;;;;;;;;5051755;28;20377;-79
2021/08/20 11:02:31;;;;;;;7.43;6.55;;;;;;;;;;5069425;28;20397;-81
2021/08/20 11:05:00;;;;;;;9.32;7.63;;;;;;;;;;5069269;28;20898;-78
2021/08/20 11:07:35;;;;;;;9.40;7.57;;;;;;;;;;5069490;28;20382;-82
2021/08/20 11:10:10;;;;;;;10.13;7.72;;;;;;;;;;5051520;28;20378;-80
2021/08/20 11:12:39;;;;;;;8.02;7.20;;;;;;;;;;5069349;28;20378;-83
2021/08/20 11:15:21;;;;;;;9.40;6.83;;;;;;;;;;5051621;28;20381;-80
2021/08/20 11:17:58;;;;;;;8.20;7.40;;;;;;;;;;5069506;28;20451;-78
2021/08/20 11:20:27;;;;;;;9.55;7.78;;;;;;;;;;5048805;28;20713;-81
2021/08/20 11:25:40;;;;;;;9.32;8.18;;;;;;;;;;5068003;28;20410;-82
2021/08/20 11:28:06;;;;;;;8.57;7.65;;;;;;;;;;5067640;28;20393;-81
2021/08/20 11:30:35;;;;;;;10.00;8.33;;;;;;;;;;5068226;28;20867;-81
2021/08/20 11:33:08;;;;;;;10.43;9.30;;;;;;;;;;5068605;28;20382;-79
2021/08/20 11:35:34;;;;;;;14.85;9.98;;;;;;;;;;5066803;28;20402;-79
2021/08/20 11:38:01;;;;;;;12.20;10.50;;;;;;;;;;5069049;28;20366;-81
2021/08/20 11:40:26;;;;;;;8.13;7.43;;;;;;;;;;5068758;28;20424;-79
2021/08/20 11:43:09;;;;;;;10.73;7.40;;;;;;;;;;5050912;28;21095;-82
2021/08/20 11:45:36;;;;;;;7.97;6.40;;;;;;;;;;5068925;28;20413;-80
2021/08/20 11:48:02;;;;;;;8.20;7.35;;;;;;;;;;5067960;28;20392;-80
2021/08/20 11:50:29;;;;;;;9.10;7.60;;;;;;;;;;5068660;28;20374;-82
2021/08/20 11:52:55;;;;;;;7.70;7.00;;;;;;;;;;5068458;28;20390;-81
2021/08/20 11:55:21;;;;;;;9.05;6.60;;;;;;;;;;5068781;28;20350;-78
2021/08/20 11:57:47;;;;;;;9.07;6.70;;;;;;;;;;5068361;28;20773;-78
2021/08/20 12:00:14;;;;;;;9.98;8.10;;;;;;;;;;5067223;28;20796;-83
2021/08/20 12:02:40;;;;;;;9.60;8.70;;;;;;;;;;5068163;28;20373;-82
2021/08/20 12:05:17;;;;;;;8.77;7.88;;;;;;;;;;5049156;28;20406;-81
2021/08/20 12:07:43;;;;;;;9.43;8.40;;;;;;;;;;5049443;28;20471;-84
2021/08/20 12:10:10;;;;;;;9.80;8.55;;;;;;;;;;5043240;28;20378;-81
2021/08/20 12:12:46;;;;;;;8.80;7.90;;;;;;;;;;5060462;28;20438;-81
2021/08/20 12:15:13;;;;;;;8.60;7.75;;;;;;;;;;5062025;28;20370;-82
2021/08/20 12:17:40;;;;;;;6.65;6.03;;;;;;;;;;5059939;28;20385;-82
2021/08/20 12:20:23;;;;;;;6.38;5.60;;;;;;;;;;5064718;28;20387;-85
2021/08/20 12:22:50;;;;;;;5.88;4.80;;;;;;;;;;5066626;28;20366;-83
2021/08/20 12:25:17;;;;;;;7.05;5.05;;;;;;;;;;5048569;28;20764;-81
2021/08/20 12:27:45;;;;;;;6.27;4.47;;;;;;;;;;5067101;28;20378;-81
2021/08/20 12:30:12;;;;;;;5.88;4.60;;;;;;;;;;5067398;28;20410;-80
2021/08/20 12:32:40;;;;;;;4.35;3.90;;;;;;;;;;5067435;28;20834;-85
2021/08/20 12:35:06;;;;;;;4.30;3.70;;;;;;;;;;5067300;28;20853;-83
2021/08/20 12:37:32;;;;;;;5.47;3.85;;;;;;;;;;5067091;28;20381;-82
2021/08/20 12:40:03;;;;;;;5.93;3.50;;;;;;;;;;5066878;28;20362;-82
2021/08/20 12:42:29;;;;;;;5.00;3.53;;;;;;;;;;5068009;28;20382;-81
2021/08/20 12:45:12;;;;;;;4.28;3.13;;;;;;;;;;5048842;28;20406;-83
2021/08/20 12:47:38;;;;;;;2.58;2.35;;;;;;;;;;5047830;28;20398;-82
2021/08/20 12:50:06;;;;;;;2.40;2.17;;;;;;;;;;5047457;28;20390;-81
2021/08/20 12:52:32;;;;;;;2.83;2.35;;;;;;;;;;5066805;28;20370;-85
2021/08/20 12:54:58;;;;;;;4.30;2.75;;;;;;;;;;5062336;28;20429;-82
2021/08/20 12:57:26;;;;;;;3.20;2.95;;;;;;;;;;5063733;28;20409;-82
2021/08/20 13:00:01;;;;;;;2.90;2.60;;;;;;;;;;5065557;28;20412;-82
2021/08/20 13:02:27;;;;;;;2.53;2.30;;;;;;;;;;5065120;28;20388;-82
2021/08/20 13:04:53;;;;;;;3.33;2.80;;;;;;;;;;5066007;28;20523;-82
2021/08/20 13:07:19;;;;;;;4.03;2.55;;;;;;;;;;5066727;28;20849;-82
2021/08/20 13:09:45;;;;;;;3.70;2.80;;;;;;;;;;5063911;28;20390;-81
2021/08/20 13:12:11;;;;;;;3.20;2.90;;;;;;;;;;5067140;28;20393;-81
2021/08/20 13:14:37;;;;;;;4.97;2.97;;;;;;;;;;5065205;28;20389;-82
2021/08/20 13:17:03;;;;;;;4.07;3.67;;;;;;;;;;5065208;28;20378;-82
2021/08/20 13:19:29;;;;;;;6.13;4.65;;;;;;;;;;5054367;28;20474;-81
2021/08/20 13:21:55;;;;;;;3.22;2.85;;;;;;;;;;5081972;28;20428;-83
2021/08/20 13:24:22;;;;;;;4.15;2.90;;;;;;;;;;5088649;28;20495;-81
2021/08/20 13:26:48;;;;;;;3.30;2.90;;;;;;;;;;5062372;28;20430;-81
2021/08/20 13:29:14;;;;;;;3.63;3.30;;;;;;;;;;5071675;28;20476;-83
2021/08/20 13:31:40;;;;;;;4.35;3.95;;;;;;;;;;5091453;28;20372;-81
2021/08/20 13:34:06;;;;;;;5.97;4.70;;;;;;;;;;5076078;28;20378;-82
2021/08/20 13:36:32;;;;;;;6.00;4.68;;;;;;;;;;5072557;28;20362;-81
2021/08/20 13:38:58;;;;;;;5.10;4.47;;;;;;;;;;5070867;28;20401;-82
2021/08/20 13:41:32;;;;;;;4.78;4.30;;;;;;;;;;5055810;28;20394;-85
2021/08/20 13:43:58;;;;;;;4.10;3.58;;;;;;;;;;5073806;28;20455;-82
2021/08/20 13:46:24;;;;;;;3.70;3.30;;;;;;;;;;5075117;28;20393;-81
2021/08/20 13:48:52;;;;;;;3.85;3.53;;;;;;;;;;5075091;28;20374;-83
2021/08/20 13:51:18;;;;;;;3.75;3.45;;;;;;;;;;5054327;28;20398;-81
2021/08/20 13:53:45;;;;;;;4.73;3.77;;;;;;;;;;5071815;28;20378;-83
2021/08/20 13:56:11;;;;;;;4.25;3.90;;;;;;;;;;5072021;28;20385;-82
2021/08/20 13:58:41;;;;;;;5.13;4.65;;;;;;;;;;5053504;28;20814;-80
2021/08/20 14:01:07;;;;;;;6.97;5.50;;;;;;;;;;5066731;28;20500;-81
2021/08/20 14:03:34;;;;;;;6.57;6.00;;;;;;;;;;5063910;28;20453;-84
2021/08/20 14:06:00;;;;;;;6.25;5.65;;;;;;;;;;5053698;28;20461;-82
2021/08/20 14:08:25;;;;;;;5.80;5.30;;;;;;;;;;5053512;28;20411;-83
2021/08/20 14:10:52;;;;;;;5.97;5.40;;;;;;;;;;5071533;28;20381;-83
2021/08/20 14:13:17;;;;;;;7.07;5.18;;;;;;;;;;5073714;28;21118;-81
2021/08/20 14:15:44;;;;;;;5.60;5.10;;;;;;;;;;5072924;28;20382;-83
2021/08/20 14:18:10;;;;;;;6.00;5.40;;;;;;;;;;5071741;28;20448;-82
2021/08/20 14:20:37;;;;;;;5.28;4.78;;;;;;;;;;5072150;28;20744;-85
2021/08/20 14:23:03;;;;;;;7.07;5.03;;;;;;;;;;5072372;28;20378;-80
2021/08/20 14:25:29;;;;;;;5.10;4.65;;;;;;;;;;5071136;28;20448;-79
2021/08/20 14:27:55;;;;;;;5.13;4.47;;;;;;;;;;5067974;28;20474;-83
2021/08/20 14:30:21;;;;;;;5.55;4.40;;;;;;;;;;5070139;28;20374;-81
2021/08/20 14:32:47;;;;;;;5.10;4.60;;;;;;;;;;5068599;28;20405;-80
2021/08/20 14:35:15;;;;;;;4.72;4.32;;;;;;;;;;5051702;28;20390;-82
2021/08/20 14:37:41;;;;;;;5.53;4.40;;;;;;;;;;5068518;28;20381;-81
2021/08/20 14:40:07;;;;;;;5.20;4.70;;;;;;;;;;5048740;28;20408;-83
2021/08/20 14:42:33;;;;;;;5.15;4.65;;;;;;;;;;5067416;28;20390;-83
2021/08/20 14:45:02;;;;;;;5.40;4.80;;;;;;;;;;5069426;28;21068;-82
2021/08/20 14:47:29;;;;;;;5.77;5.17;;;;;;;;;;5068523;28;20847;-84
2021/08/20 14:49:55;;;;;;;6.32;5.22;;;;;;;;;;5051849;28;20814;-82
2021/08/20 14:52:21;;;;;;;5.70;4.90;;;;;;;;;;5069521;28;20374;-81
2021/08/20 14:54:47;;;;;;;5.07;4.57;;;;;;;;;;5067744;28;20470;-80
2021/08/20 14:57:13;;;;;;;5.30;4.80;;;;;;;;;;5069101;28;20473;-79